Time;durP1;ratioP1;P1;durP2;ratioP2;P2;SDS_P1;SDS_P2;PMS_P1;PMS_P2;Temp;Humidity;BMP_temperature;BMP_pressure;BME280_temperature;BME280_humidity;BME280_pressure;Samples;Min_cycle;Max_cycle;Signal;HPM_P1;HPM_P2
2023/08/21 00:02:19;;;;;;;14.38;12.88;;;23.70;99.90;;;;;;2603533;54;21582;31
2023/08/21 00:04:54;;;;;;;15.53;14.03;;;23.70;99.90;;;;;;2603399;54;20033;31
2023/08/21 00:07:32;;;;;;;14.55;13.15;;;23.60;99.90;;;;;;2603425;54;20009;31
2023/08/21 00:10:08;;;;;;;13.93;12.48;;;23.60;99.90;;;;;;2603574;54;20894;31
2023/08/21 00:12:43;;;;;;;15.15;13.65;;;23.50;99.90;;;;;;2603340;54;20052;31
2023/08/21 00:15:18;;;;;;;12.85;11.60;;;23.50;99.90;;;;;;2603382;54;20926;31
2023/08/21 00:17:53;;;;;;;13.35;12.15;;;23.50;99.90;;;;;;2702172;39;21442;31
2023/08/21 00:20:27;;;;;;;15.53;11.57;;;23.50;99.90;;;;;;2603359;54;20077;31
2023/08/21 00:23:05;;;;;;;18.05;13.50;;;23.40;99.90;;;;;;2622024;46;20731;31
2023/08/21 00:25:39;;;;;;;15.27;13.75;;;23.40;99.90;;;;;;2603460;54;20031;31
2023/08/21 00:28:12;;;;;;;13.25;12.05;;;23.30;99.90;;;;;;2603386;54;21855;31
2023/08/21 00:30:46;;;;;;;12.23;10.80;;;23.30;99.90;;;;;;2603380;54;20042;31
2023/08/21 00:33:23;;;;;;;14.88;13.38;;;23.30;99.90;;;;;;2603600;54;20081;31
2023/08/21 00:35:57;;;;;;;14.75;13.45;;;23.30;99.90;;;;;;2603268;54;20085;31
2023/08/21 00:38:35;;;;;;;12.65;11.50;;;23.20;99.90;;;;;;2603361;54;20033;31
2023/08/21 00:41:09;;;;;;;14.82;13.32;;;23.20;99.90;;;;;;2701796;39;21619;31
2023/08/21 00:43:43;;;;;;;15.10;13.50;;;23.20;99.90;;;;;;2603283;54;21252;31
2023/08/21 00:46:18;;;;;;;13.35;12.00;;;23.20;99.90;;;;;;2621938;46;20495;31
2023/08/21 00:48:53;;;;;;;14.63;13.32;;;23.20;99.90;;;;;;2622112;46;20031;31
2023/08/21 00:51:28;;;;;;;15.50;13.93;;;23.20;99.90;;;;;;2603479;54;20037;31
2023/08/21 00:54:07;;;;;;;17.08;13.45;;;23.20;99.90;;;;;;2603232;54;20030;31
2023/08/21 00:56:41;;;;;;;17.35;13.95;;;23.20;99.90;;;;;;2603212;54;20030;31
2023/08/21 00:59:18;;;;;;;18.88;15.02;;;23.10;99.90;;;;;;2603236;54;20777;31
2023/08/21 01:01:52;;;;;;;13.82;12.63;;;23.20;99.90;;;;;;2603431;54;20844;31
2023/08/21 01:04:27;;;;;;;14.25;12.98;;;23.20;99.90;;;;;;2603181;54;20037;31
2023/08/21 01:07:04;;;;;;;14.48;12.52;;;23.20;99.90;;;;;;2621876;46;20053;31
2023/08/21 01:09:44;;;;;;;13.70;12.50;;;23.20;99.90;;;;;;2603375;54;20096;31
2023/08/21 01:12:24;;;;;;;16.55;14.90;;;23.20;99.90;;;;;;2603386;54;20883;31
2023/08/21 01:15:02;;;;;;;13.60;12.20;;;23.10;99.90;;;;;;2603186;54;20023;31
2023/08/21 01:17:38;;;;;;;14.35;13.00;;;23.10;99.90;;;;;;2720181;39;20420;31
2023/08/21 01:20:13;;;;;;;16.00;14.38;;;23.20;99.90;;;;;;2603205;54;20536;31
2023/08/21 01:22:50;;;;;;;16.47;14.70;;;23.20;99.90;;;;;;2603502;54;20034;31
2023/08/21 01:25:27;;;;;;;16.20;14.50;;;23.10;99.90;;;;;;2604180;54;19964;31
2023/08/21 01:28:01;;;;;;;15.88;14.52;;;23.10;99.90;;;;;;2604165;54;20038;31
2023/08/21 01:30:36;;;;;;;14.05;12.65;;;23.10;99.90;;;;;;2603961;54;20033;31
2023/08/21 01:33:12;;;;;;;16.27;14.60;;;23.10;99.90;;;;;;2604109;54;20026;31
2023/08/21 01:35:47;;;;;;;13.75;12.52;;;23.10;99.90;;;;;;2622450;46;20089;31
2023/08/21 01:38:22;;;;;;;13.60;12.30;;;23.10;99.90;;;;;;2622171;46;20026;31
2023/08/21 01:41:00;;;;;;;17.17;13.77;;;23.10;99.90;;;;;;2622348;46;20030;31
2023/08/21 01:43:34;;;;;;;14.70;13.27;;;23.10;99.90;;;;;;2604104;54;20840;31
2023/08/21 01:46:11;;;;;;;15.80;14.18;;;23.10;99.90;;;;;;2603779;54;20022;31
2023/08/21 01:48:45;;;;;;;16.27;14.63;;;23.10;99.90;;;;;;2622344;46;20031;31
2023/08/21 01:51:20;;;;;;;14.75;13.15;;;23.10;99.90;;;;;;2604037;54;20033;31
2023/08/21 01:53:55;;;;;;;15.77;14.35;;;23.20;99.90;;;;;;2604252;54;20022;31
2023/08/21 01:56:31;;;;;;;16.80;15.40;;;23.20;99.90;;;;;;2603781;54;20023;31
2023/08/21 01:59:06;;;;;;;15.40;14.00;;;23.10;99.90;;;;;;2622408;46;20027;31
2023/08/21 02:01:41;;;;;;;15.63;14.13;;;23.10;99.90;;;;;;2603788;54;20767;31
2023/08/21 02:04:14;;;;;;;19.60;17.70;;;23.10;99.90;;;;;;2604029;54;20026;31
2023/08/21 02:06:48;;;;;;;19.13;17.00;;;23.10;99.90;;;;;;2622017;46;20918;31
2023/08/21 02:09:22;;;;;;;19.75;16.65;;;23.10;99.90;;;;;;2603855;54;20033;31
2023/08/21 02:11:59;;;;;;;21.25;19.25;;;23.10;99.90;;;;;;2622382;46;20053;31
2023/08/21 02:14:32;;;;;;;21.77;19.55;;;23.10;99.90;;;;;;2603704;54;20095;31
2023/08/21 02:17:06;;;;;;;22.83;20.70;;;23.10;99.90;;;;;;2603561;46;20031;31
2023/08/21 02:19:38;;;;;;;25.75;22.67;;;23.00;99.90;;;;;;2632834;54;20006;-94
2023/08/21 02:24:44;;;;;;;23.65;20.85;;;23.00;99.90;;;;;;2603338;54;20082;31
2023/08/21 02:27:20;;;;;;;24.42;22.08;;;22.90;99.90;;;;;;2603593;54;20851;31
2023/08/21 02:29:54;;;;;;;23.13;21.05;;;22.90;99.90;;;;;;2603851;54;20894;31
2023/08/21 02:32:28;;;;;;;28.10;25.35;;;22.90;99.90;;;;;;2603648;54;20971;31
2023/08/21 02:35:03;;;;;;;27.52;24.65;;;22.90;99.90;;;;;;2701905;39;21634;31
2023/08/21 02:37:39;;;;;;;29.45;26.17;;;22.90;99.90;;;;;;2603766;54;20851;31
2023/08/21 02:40:13;;;;;;;31.88;26.88;;;22.80;99.90;;;;;;2622090;46;20029;31
2023/08/21 02:42:51;;;;;;;29.10;26.20;;;22.80;99.90;;;;;;2603877;54;20031;31
2023/08/21 02:45:24;;;;;;;33.90;30.25;;;22.80;99.90;;;;;;2621945;46;20914;31
2023/08/21 02:47:59;;;;;;;33.33;29.77;;;22.90;99.90;;;;;;2603628;54;20026;31
2023/08/21 02:50:34;;;;;;;32.85;28.10;;;22.80;99.90;;;;;;2621981;46;20095;31
2023/08/21 02:53:07;;;;;;;35.95;32.20;;;22.80;99.90;;;;;;2773913;31;21127;31
2023/08/21 02:55:42;;;;;;;35.38;30.40;;;22.80;99.90;;;;;;2622660;46;20899;31
2023/08/21 02:58:18;;;;;;;29.10;26.00;;;22.80;99.90;;;;;;2603759;54;20026;31
2023/08/21 03:00:56;;;;;;;33.30;26.45;;;22.70;99.90;;;;;;2603644;54;20038;31
2023/08/21 03:03:32;;;;;;;24.42;21.63;;;22.80;99.90;;;;;;2622378;46;20038;31
2023/08/21 03:06:06;;;;;;;26.65;23.90;;;22.80;99.90;;;;;;2602961;54;20030;31
2023/08/21 03:08:43;;;;;;;21.25;19.15;;;22.80;99.90;;;;;;2603754;54;20065;31
2023/08/21 03:11:15;;;;;;;22.13;19.80;;;22.80;99.90;;;;;;2702267;39;21030;31
2023/08/21 03:13:50;;;;;;;25.15;21.30;;;22.80;99.90;;;;;;2603874;54;20027;31
2023/08/21 03:16:28;;;;;;;29.57;24.83;;;22.90;99.90;;;;;;2603634;54;20081;31
2023/08/21 03:19:03;;;;;;;26.80;24.00;;;22.90;99.90;;;;;;2603813;54;20031;31
2023/08/21 03:21:38;;;;;;;29.40;22.50;;;22.90;99.90;;;;;;2603739;54;20881;31
2023/08/21 03:24:13;;;;;;;26.70;24.00;;;22.90;99.90;;;;;;2622020;46;20033;31
2023/08/21 03:26:48;;;;;;;23.75;21.42;;;22.90;99.90;;;;;;2603447;54;20788;31
2023/08/21 03:29:23;;;;;;;31.90;25.73;;;22.90;99.90;;;;;;2603573;54;20085;31
2023/08/21 03:32:01;;;;;;;25.95;23.23;;;22.90;99.90;;;;;;2622087;46;20086;31
2023/08/21 03:34:36;;;;;;;30.70;27.50;;;22.90;99.90;;;;;;2603655;54;20022;31
2023/08/21 03:37:11;;;;;;;28.13;25.10;;;22.90;99.90;;;;;;2622042;46;20022;31
2023/08/21 03:39:46;;;;;;;26.10;23.20;;;22.80;99.90;;;;;;2603448;54;20081;31
2023/08/21 03:42:21;;;;;;;21.23;19.20;;;22.80;99.90;;;;;;2603669;54;20920;31
2023/08/21 03:44:56;;;;;;;21.33;19.10;;;22.80;99.90;;;;;;2603710;54;20064;31
2023/08/21 03:47:34;;;;;;;23.75;21.20;;;22.80;99.90;;;;;;2603389;54;20257;31
2023/08/21 03:50:14;;;;;;;24.00;21.10;;;22.80;99.90;;;;;;2603495;54;20385;31
2023/08/21 03:52:48;;;;;;;23.83;21.33;;;22.70;99.90;;;;;;2603369;54;20910;31
2023/08/21 03:55:23;;;;;;;24.92;21.75;;;22.70;99.90;;;;;;2603601;54;20862;31
2023/08/21 03:57:59;;;;;;;24.40;21.08;;;22.70;99.90;;;;;;2603590;54;20026;31
2023/08/21 04:00:34;;;;;;;24.95;22.23;;;22.60;99.90;;;;;;2603543;54;20112;31
2023/08/21 04:03:12;;;;;;;26.13;22.88;;;22.60;99.90;;;;;;2622464;46;20930;31
2023/08/21 04:05:46;;;;;;;27.65;24.05;;;22.60;99.90;;;;;;2603333;54;20815;31
2023/08/21 04:08:19;;;;;;;28.75;25.55;;;22.60;99.90;;;;;;2603312;54;20096;31
2023/08/21 04:10:59;;;;;;;29.80;23.87;;;22.50;99.90;;;;;;2603299;54;20060;31
2023/08/21 04:13:34;;;;;;;25.63;23.13;;;22.50;99.90;;;;;;2603383;54;20234;31
2023/08/21 04:16:10;;;;;;;29.55;25.05;;;22.50;99.90;;;;;;2603588;54;20057;31
2023/08/21 04:18:47;;;;;;;30.00;26.45;;;22.50;99.90;;;;;;2621741;46;20645;31
2023/08/21 04:21:22;;;;;;;35.60;28.27;;;22.50;99.90;;;;;;2603628;54;19942;31
2023/08/21 04:23:58;;;;;;;29.15;24.60;;;22.50;99.90;;;;;;2603564;54;20596;31
2023/08/21 04:26:33;;;;;;;24.57;21.67;;;22.50;99.90;;;;;;2603528;54;20029;31
2023/08/21 04:29:09;;;;;;;21.52;19.27;;;22.40;99.90;;;;;;2603401;54;19941;31
2023/08/21 04:31:44;;;;;;;25.75;21.02;;;22.20;99.90;;;;;;2720098;39;21517;31
2023/08/21 04:34:21;;;;;;;26.50;21.33;;;22.10;99.90;;;;;;2702108;39;20902;31
2023/08/21 04:36:56;;;;;;;22.80;19.65;;;21.90;99.90;;;;;;2611131;46;20026;31
2023/08/21 04:39:31;;;;;;;21.85;18.25;;;21.90;99.90;;;;;;2603320;54;20926;31
2023/08/21 04:42:07;;;;;;;20.27;18.17;;;21.80;99.90;;;;;;2603496;54;20030;31
2023/08/21 04:44:41;;;;;;;24.85;19.75;;;21.70;99.90;;;;;;2622000;46;20026;31
2023/08/21 04:47:25;;;;;;;21.63;19.43;;;21.70;99.90;;;;;;2603299;54;20033;31
2023/08/21 04:50:07;;;;;;;22.02;19.63;;;21.70;99.90;;;;;;2603254;54;20034;31
2023/08/21 04:52:41;;;;;;;23.67;20.08;;;21.60;99.90;;;;;;2621535;46;20886;31
2023/08/21 04:55:20;;;;;;;22.63;20.05;;;21.60;99.90;;;;;;2791498;31;21557;31
2023/08/21 04:57:54;;;;;;;22.60;20.27;;;21.60;99.90;;;;;;2603107;54;20034;31
2023/08/21 05:00:31;;;;;;;24.98;20.42;;;21.60;99.90;;;;;;2603242;54;20033;31
2023/08/21 05:03:06;;;;;;;;;;;21.60;99.90;;;;;;2622182;46;20049;31
2023/08/21 05:05:43;;;;;;;17.80;14.75;;;21.50;99.90;;;;;;2603356;54;20762;31
2023/08/21 05:08:17;;;;;;;15.77;14.07;;;21.50;99.90;;;;;;2603119;54;20031;31
2023/08/21 05:10:50;;;;;;;20.38;15.35;;;21.40;99.90;;;;;;2701811;39;21007;31
2023/08/21 05:13:25;;;;;;;16.35;14.30;;;21.40;99.90;;;;;;2603130;54;20038;31
2023/08/21 05:16:01;;;;;;;17.30;15.50;;;21.40;99.90;;;;;;2621352;47;20108;31
2023/08/21 05:18:41;;;;;;;17.40;14.25;;;21.40;99.90;;;;;;2603416;54;20027;31
2023/08/21 05:21:18;;;;;;;18.20;15.23;;;21.30;99.90;;;;;;2603214;54;20038;31
2023/08/21 05:23:54;;;;;;;18.42;14.80;;;21.30;99.90;;;;;;2621757;46;20022;31
2023/08/21 05:26:28;;;;;;;14.52;13.00;;;21.30;99.90;;;;;;2603171;54;20172;31
2023/08/21 05:29:03;;;;;;;17.70;14.75;;;21.30;99.90;;;;;;2621158;47;20045;31
2023/08/21 05:31:38;;;;;;;18.40;15.20;;;21.30;99.90;;;;;;2621617;47;20050;31
2023/08/21 05:34:13;;;;;;;18.30;16.43;;;21.30;99.90;;;;;;2603085;54;19985;31
2023/08/21 05:36:48;;;;;;;13.43;11.83;;;21.20;99.90;;;;;;2603033;54;20027;31
2023/08/21 05:39:25;;;;;;;14.32;12.82;;;21.20;99.90;;;;;;2602968;54;20035;31
2023/08/21 05:41:59;;;;;;;13.27;11.65;;;21.20;99.90;;;;;;2603180;54;20045;31
2023/08/21 05:44:37;;;;;;;11.73;10.65;;;21.20;99.90;;;;;;2621660;47;20022;31
2023/08/21 05:47:12;;;;;;;10.85;9.75;;;21.30;99.90;;;;;;2603103;54;20085;31
2023/08/21 05:49:48;;;;;;;11.02;9.15;;;21.30;99.90;;;;;;2603150;54;20053;31
2023/08/21 05:52:23;;;;;;;11.35;10.25;;;21.30;99.90;;;;;;2603083;54;20050;31
2023/08/21 05:55:00;;;;;;;12.30;10.25;;;21.30;99.90;;;;;;2621442;47;20053;31
2023/08/21 05:57:35;;;;;;;10.57;9.50;;;21.40;99.90;;;;;;2621443;47;20871;31
2023/08/21 06:00:10;;;;;;;;;;;21.40;99.90;;;;;;2602995;54;20573;31
2023/08/21 06:02:47;;;;;;;9.20;6.70;;;21.50;99.90;;;;;;2603058;54;19937;31
2023/08/21 06:05:38;;;;;;;8.65;7.85;;;21.40;99.90;;;;;;2720375;39;21003;31
2023/08/21 06:08:14;;;;;;;6.55;5.95;;;21.40;99.90;;;;;;2602837;54;20089;31
2023/08/21 06:10:53;;;;;;;9.70;6.30;;;21.40;99.90;;;;;;2603928;54;20056;31
2023/08/21 06:13:28;;;;;;;6.90;6.20;;;21.40;99.90;;;;;;2603741;54;20037;31
2023/08/21 06:16:03;;;;;;;7.53;5.70;;;21.40;99.90;;;;;;2621992;46;20018;31
2023/08/21 06:18:40;;;;;;;9.35;6.55;;;21.40;99.90;;;;;;2702290;39;20493;31
2023/08/21 06:21:15;;;;;;;8.27;6.30;;;21.40;99.90;;;;;;2603902;54;20100;31
2023/08/21 06:23:50;;;;;;;7.38;5.93;;;21.50;99.90;;;;;;2603868;54;20027;31
2023/08/21 06:26:28;;;;;;;6.22;5.63;;;21.60;99.90;;;;;;2792184;31;20565;31
2023/08/21 06:29:04;;;;;;;8.32;5.30;;;21.80;99.90;;;;;;2603742;54;20901;31
2023/08/21 06:31:40;;;;;;;10.35;5.78;;;21.80;99.90;;;;;;2603849;54;20052;31
2023/08/21 06:34:16;;;;;;;8.88;6.28;;;21.90;99.90;;;;;;2603697;54;20085;31
2023/08/21 06:36:52;;;;;;;5.72;5.13;;;21.90;99.90;;;;;;2603988;54;20030;31
2023/08/21 06:39:26;;;;;;;;;;;21.90;99.90;;;;;;2604102;54;20026;31
2023/08/21 06:42:04;;;;;;;7.55;6.00;;;21.90;99.90;;;;;;2603882;54;20725;31
2023/08/21 06:44:46;;;;;;;9.50;6.95;;;21.90;99.90;;;;;;2603569;54;20038;31
2023/08/21 06:47:22;;;;;;;9.25;6.75;;;21.90;99.90;;;;;;2622510;46;20034;31
2023/08/21 06:49:56;;;;;;;7.32;6.53;;;21.80;99.90;;;;;;2603871;54;19961;31
2023/08/21 06:52:31;;;;;;;7.70;6.57;;;21.80;99.90;;;;;;2603806;54;19935;31
2023/08/21 06:55:07;;;;;;;6.82;6.13;;;21.90;99.90;;;;;;2621940;46;20021;31
2023/08/21 06:57:45;;;;;;;9.27;6.63;;;21.90;99.90;;;;;;2621994;46;20032;31
2023/08/21 07:00:20;;;;;;;8.23;6.43;;;21.80;99.90;;;;;;2603867;54;20053;31
2023/08/21 07:02:56;;;;;;;7.13;6.25;;;21.80;99.90;;;;;;2603504;54;20081;31
2023/08/21 07:05:31;;;;;;;8.43;6.55;;;21.80;99.90;;;;;;2603557;54;20068;31
2023/08/21 07:08:06;;;;;;;8.70;6.85;;;21.80;99.90;;;;;;2622336;46;20887;31
2023/08/21 07:10:41;;;;;;;10.13;7.80;;;21.80;99.90;;;;;;2603658;54;20030;31
2023/08/21 07:13:18;;;;;;;10.00;6.55;;;21.80;99.90;;;;;;2603823;54;20884;31
2023/08/21 07:15:51;;;;;;;12.02;6.80;;;21.70;99.90;;;;;;2603887;54;20875;31
2023/08/21 07:18:26;;;;;;;6.75;6.05;;;21.80;99.90;;;;;;2621964;46;20026;31
2023/08/21 07:21:00;;;;;;;9.80;7.13;;;21.80;99.90;;;;;;2603392;54;20798;31
2023/08/21 07:23:35;;;;;;;8.68;6.38;;;21.80;99.90;;;;;;2603652;54;20038;31
2023/08/21 07:26:09;;;;;;;6.47;5.47;;;21.80;99.90;;;;;;2603772;54;20031;31
2023/08/21 07:28:47;;;;;;;11.23;6.05;;;21.80;99.90;;;;;;2603666;54;20788;31
2023/08/21 07:31:22;;;;;;;7.38;5.68;;;21.90;99.90;;;;;;2603658;54;20026;31
2023/08/21 07:33:57;;;;;;;9.50;6.00;;;21.90;99.90;;;;;;2603581;54;20027;31
2023/08/21 07:36:32;;;;;;;7.95;5.85;;;21.90;99.90;;;;;;2603568;54;20058;31
2023/08/21 07:39:07;;;;;;;7.37;6.17;;;21.90;99.90;;;;;;2621932;46;20056;31
2023/08/21 07:41:44;;;;;;;11.65;5.53;;;21.90;99.90;;;;;;2702239;39;21509;31
2023/08/21 07:44:21;;;;;;;7.53;5.20;;;21.90;99.90;;;;;;2603619;54;19934;31
2023/08/21 07:46:55;;;;;;;6.85;5.20;;;22.00;99.90;;;;;;2603492;54;20026;31
2023/08/21 07:49:30;;;;;;;7.05;5.80;;;22.10;99.90;;;;;;2603628;54;20132;31
2023/08/21 07:52:08;;;;;;;7.30;5.43;;;22.20;99.90;;;;;;2603520;54;20136;31
2023/08/21 07:54:43;;;;;;;6.32;5.05;;;22.20;99.90;;;;;;2603409;54;20486;31
2023/08/21 07:57:18;;;;;;;8.02;5.93;;;22.20;99.90;;;;;;2603376;54;20593;31
2023/08/21 07:59:55;;;;;;;10.13;5.90;;;22.40;99.90;;;;;;2603608;54;20041;31
2023/08/21 08:02:32;;;;;;;6.15;5.25;;;22.50;99.90;;;;;;2603450;54;20027;31
2023/08/21 08:05:08;;;;;;;9.95;5.13;;;22.50;99.90;;;;;;2603450;54;21584;31
2023/08/21 08:07:42;;;;;;;7.18;5.32;;;22.70;99.90;;;;;;2603651;54;20050;31
2023/08/21 08:10:18;;;;;;;5.90;4.57;;;22.90;99.90;;;;;;2621899;46;20033;31
2023/08/21 08:12:53;;;;;;;7.53;4.93;;;23.30;99.90;;;;;;2603518;54;20026;31
2023/08/21 08:15:30;;;;;;;6.85;4.47;;;23.70;99.90;;;;;;2603290;54;20030;31
2023/08/21 08:18:07;;;;;;;7.57;4.40;;;24.10;99.90;;;;;;2603507;54;20027;31
2023/08/21 08:20:41;;;;;;;6.72;4.30;;;24.30;99.90;;;;;;2702034;39;21469;31
2023/08/21 08:23:16;;;;;;;4.45;3.70;;;24.50;99.90;;;;;;2603514;54;21594;31
2023/08/21 08:25:53;;;;;;;6.43;3.50;;;24.60;99.90;;;;;;2621640;46;20869;31
2023/08/21 08:28:27;;;;;;;5.70;3.55;;;24.80;99.90;;;;;;2603474;54;20034;31
2023/08/21 08:31:05;;;;;;;7.57;4.23;;;24.90;99.90;;;;;;2603331;54;20617;31
2023/08/21 08:33:39;;;;;;;4.35;3.30;;;24.80;99.90;;;;;;2602938;54;20038;31
2023/08/21 08:36:14;;;;;;;5.03;3.45;;;24.80;99.90;;;;;;2603298;54;20882;31
2023/08/21 08:38:49;;;;;;;6.55;4.07;;;24.80;99.90;;;;;;2622080;46;20022;31
2023/08/21 08:41:31;;;;;;;4.28;3.03;;;24.80;99.90;;;;;;2603370;54;20033;31
2023/08/21 08:44:05;;;;;;;7.18;3.47;;;24.80;99.90;;;;;;2603392;54;20915;31
2023/08/21 08:46:42;;;;;;;8.10;4.00;;;24.70;99.90;;;;;;2603280;54;20952;31
2023/08/21 08:49:15;;;;;;;7.50;3.45;;;24.60;99.90;;;;;;2621645;46;20030;31
2023/08/21 08:51:50;;;;;;;5.40;4.00;;;24.60;99.90;;;;;;2603474;54;20038;31
2023/08/21 08:54:25;;;;;;;5.25;3.25;;;24.50;99.90;;;;;;2603494;54;20875;31
2023/08/21 08:57:00;;;;;;;4.32;3.90;;;24.50;99.90;;;;;;2603261;54;20092;31
2023/08/21 08:59:35;;;;;;;;;;;24.40;99.90;;;;;;2603387;54;20038;31
2023/08/21 09:02:12;;;;;;;5.63;3.60;;;24.30;99.90;;;;;;2603202;54;20733;31
2023/08/21 09:04:48;;;;;;;5.22;3.55;;;24.30;99.90;;;;;;2603202;54;20476;31
2023/08/21 09:07:21;;;;;;;3.97;3.60;;;24.40;99.90;;;;;;2603417;54;21157;31
2023/08/21 09:09:56;;;;;;;5.03;4.22;;;24.40;99.90;;;;;;2603101;54;20914;31
2023/08/21 09:12:31;;;;;;;6.80;3.93;;;24.40;99.90;;;;;;2621710;47;20053;31
2023/08/21 09:15:09;;;;;;;4.45;3.78;;;24.30;99.90;;;;;;2621152;47;21221;31
2023/08/21 09:17:46;;;;;;;6.75;4.25;;;24.30;99.90;;;;;;2603339;54;19934;31
2023/08/21 09:20:21;;;;;;;4.22;3.53;;;24.20;99.90;;;;;;2621141;47;20026;31
2023/08/21 09:22:57;;;;;;;5.25;4.10;;;24.20;99.90;;;;;;2603072;54;20874;31
2023/08/21 09:25:32;;;;;;;5.75;3.58;;;24.30;99.90;;;;;;2603767;54;20091;31
2023/08/21 09:28:09;;;;;;;9.43;4.40;;;24.40;99.90;;;;;;2602876;54;20033;31
2023/08/21 09:30:48;;;;;;;6.60;3.72;;;24.50;99.90;;;;;;2601985;54;20026;31
2023/08/21 09:33:26;;;;;;;7.32;3.85;;;24.60;99.90;;;;;;2602780;54;20033;31
2023/08/21 09:36:05;;;;;;;5.78;3.00;;;24.80;99.90;;;;;;2603178;54;20030;31
2023/08/21 09:38:39;;;;;;;6.05;3.85;;;25.20;99.90;;;;;;2603193;54;20030;31
2023/08/21 09:41:14;;;;;;;4.77;3.03;;;25.60;99.90;;;;;;2617523;47;20026;31
2023/08/21 09:43:48;;;;;;;4.38;2.83;;;26.00;99.90;;;;;;2621708;47;20026;31
2023/08/21 09:46:27;;;;;;;7.68;3.20;;;26.40;99.90;;;;;;2603866;54;20883;31
2023/08/21 09:49:06;;;;;;;5.00;2.83;;;26.50;99.90;;;;;;2603786;54;20171;31
2023/08/21 09:51:41;;;;;;;6.65;2.40;;;26.60;99.90;;;;;;2603736;54;20849;31
2023/08/21 09:54:14;;;;;;;4.27;2.33;;;26.70;99.90;;;;;;2603875;54;20027;31
2023/08/21 09:56:49;;;;;;;6.50;2.90;;;26.70;99.90;;;;;;2603645;54;20050;31
2023/08/21 09:59:24;;;;;;;4.78;2.90;;;26.80;99.90;;;;;;2621829;46;20972;31
2023/08/21 10:01:57;;;;;;;4.72;2.50;;;26.80;99.90;;;;;;2602405;54;20052;31
2023/08/21 10:04:34;;;;;;;3.42;2.53;;;26.90;99.90;;;;;;2602650;54;20022;31
2023/08/21 10:07:07;;;;;;;2.85;2.50;;;27.00;99.90;;;;;;2603426;54;20895;31
2023/08/21 10:09:42;;;;;;;5.40;2.80;;;27.00;99.90;;;;;;2701807;39;20444;31
2023/08/21 10:12:17;;;;;;;4.25;2.53;;;27.10;99.90;;;;;;2621477;46;20033;31
2023/08/21 10:14:52;;;;;;;7.13;2.97;;;27.00;99.90;;;;;;2603789;54;20030;31
2023/08/21 10:17:27;;;;;;;4.20;2.67;;;26.90;99.90;;;;;;2603718;54;20847;31
2023/08/21 10:20:09;;;;;;;5.00;2.58;;;26.90;99.90;;;;;;2622205;46;20966;31
2023/08/21 10:22:46;;;;;;;5.57;2.55;;;26.90;99.90;;;;;;2622167;46;20027;31
2023/08/21 10:25:23;;;;;;;3.40;2.20;;;27.00;99.90;;;;;;2603664;54;20053;31
2023/08/21 10:28:05;;;;;;;2.75;2.20;;;27.00;99.90;;;;;;2603604;54;20830;31
2023/08/21 10:30:41;;;;;;;3.78;2.45;;;27.00;99.90;;;;;;2603530;54;20103;31
2023/08/21 10:33:16;;;;;;;5.63;2.42;;;27.00;99.90;;;;;;2603912;54;20876;31
2023/08/21 10:35:53;;;;;;;8.38;2.45;;;27.00;99.90;;;;;;2603625;54;20031;31
2023/08/21 10:38:26;;;;;;;2.85;2.30;;;27.10;99.90;;;;;;2603423;54;20852;31
2023/08/21 10:41:07;;;;;;;3.30;2.30;;;27.20;99.90;;;;;;2603602;54;20030;31
2023/08/21 10:43:43;;;;;;;3.90;2.60;;;27.40;99.90;;;;;;2603437;54;20278;31
2023/08/21 10:46:17;;;;;;;6.75;2.70;;;27.50;99.90;;;;;;2702067;39;21600;31
2023/08/21 10:48:52;;;;;;;4.70;1.70;;;27.50;99.90;;;;;;2603580;54;20057;31
2023/08/21 10:51:29;;;;;;;7.65;2.10;;;27.60;99.90;;;;;;2603405;54;21072;31
2023/08/21 10:54:13;;;;;;;3.30;2.20;;;27.60;99.90;;;;;;2603871;54;20888;31
2023/08/21 10:56:49;;;;;;;3.55;2.13;;;27.50;99.90;;;;;;2603292;54;20085;31
2023/08/21 10:59:24;;;;;;;3.92;2.13;;;27.50;99.90;;;;;;2621982;46;20030;31
2023/08/21 11:01:58;;;;;;;2.95;2.00;;;27.40;99.90;;;;;;2603861;54;20022;31
2023/08/21 11:04:44;;;;;;;7.03;2.20;;;27.40;99.90;;;;;;2603588;54;20054;31
2023/08/21 11:07:21;;;;;;;4.97;2.60;;;27.40;99.90;;;;;;2603530;54;20148;31
2023/08/21 11:09:58;;;;;;;2.53;2.33;;;27.60;99.90;;;;;;2603460;54;20856;31
2023/08/21 11:12:32;;;;;;;6.25;2.78;;;27.90;99.90;;;;;;2603589;54;20924;31
2023/08/21 11:15:09;;;;;;;4.50;2.92;;;28.00;99.90;;;;;;2603539;54;20038;31
2023/08/21 11:17:44;;;;;;;4.95;3.25;;;28.10;99.90;;;;;;2622361;46;20839;31
2023/08/21 11:20:19;;;;;;;8.15;3.20;;;28.30;99.90;;;;;;2603684;54;20035;31
2023/08/21 11:22:58;;;;;;;5.90;3.20;;;28.40;99.90;;;;;;2603708;54;20034;31
2023/08/21 11:25:33;;;;;;;3.10;2.78;;;28.40;99.90;;;;;;2603242;54;20831;31
2023/08/21 11:28:08;;;;;;;3.92;3.08;;;28.50;99.90;;;;;;2622200;46;20026;31
2023/08/21 11:30:42;;;;;;;;;;;28.50;99.90;;;;;;2603829;54;20077;31
2023/08/21 11:33:18;;;;;;;5.05;3.10;;;28.40;99.90;;;;;;2603484;54;19954;31
2023/08/21 11:35:53;;;;;;;3.17;2.60;;;28.50;99.90;;;;;;2603652;54;20030;31
2023/08/21 11:38:31;;;;;;;;;;;28.50;99.90;;;;;;2603966;54;20034;31
2023/08/21 11:41:08;;;;;;;6.60;3.30;;;28.50;99.90;;;;;;2622017;46;19941;31
2023/08/21 11:43:43;;;;;;;4.32;3.33;;;28.60;99.90;;;;;;2603462;54;20057;31
2023/08/21 11:46:18;;;;;;;3.57;3.27;;;28.60;99.90;;;;;;2603128;54;21266;31
2023/08/21 11:48:53;;;;;;;6.07;3.17;;;28.70;99.90;;;;;;2603566;54;20045;31
2023/08/21 11:51:27;;;;;;;;;;;28.70;99.90;;;;;;2603750;54;20901;31
2023/08/21 11:54:04;;;;;;;4.05;3.25;;;28.80;99.90;;;;;;2603628;54;19942;31
2023/08/21 11:56:42;;;;;;;5.75;3.72;;;28.80;99.90;;;;;;2621692;46;20888;31
2023/08/21 11:59:25;;;;;;;4.57;3.40;;;28.90;99.90;;;;;;2622060;46;20056;31
2023/08/21 12:02:00;;;;;;;4.93;3.53;;;29.00;99.90;;;;;;2622170;46;20026;31
2023/08/21 12:04:34;;;;;;;4.20;3.60;;;29.00;99.90;;;;;;2622055;46;20027;31
2023/08/21 12:07:08;;;;;;;4.20;3.25;;;28.90;99.90;;;;;;2611151;46;20875;31
2023/08/21 12:09:49;;;;;;;5.30;3.47;;;29.00;99.90;;;;;;2603539;54;20026;31
2023/08/21 12:12:24;;;;;;;6.25;3.35;;;29.00;99.90;;;;;;2621560;46;20045;31
2023/08/21 12:14:59;;;;;;;5.18;3.50;;;29.00;99.90;;;;;;2621998;46;20027;31
2023/08/21 12:17:34;;;;;;;5.28;3.45;;;29.10;99.90;;;;;;2617202;46;20812;31
2023/08/21 12:20:14;;;;;;;4.97;3.42;;;29.00;99.90;;;;;;2603489;54;20030;31
2023/08/21 12:22:49;;;;;;;3.90;3.15;;;29.00;99.90;;;;;;2603373;54;20042;31
2023/08/21 12:25:26;;;;;;;6.32;3.65;;;29.00;99.90;;;;;;2603558;54;20026;31
2023/08/21 12:28:00;;;;;;;5.70;3.95;;;29.00;99.90;;;;;;2603142;54;20034;31
2023/08/21 12:30:43;;;;;;;6.65;3.65;;;29.00;99.90;;;;;;2603411;54;20084;31
2023/08/21 12:33:18;;;;;;;5.15;3.60;;;28.90;99.90;;;;;;2603287;54;20034;31
2023/08/21 12:36:00;;;;;;;6.13;4.00;;;28.90;99.90;;;;;;2603184;54;20259;31
2023/08/21 12:38:35;;;;;;;4.43;3.88;;;28.90;99.90;;;;;;2603243;54;20033;31
2023/08/21 12:41:12;;;;;;;5.20;4.10;;;28.80;99.90;;;;;;2603446;54;20899;31
2023/08/21 12:43:47;;;;;;;4.32;3.90;;;28.80;99.90;;;;;;2603294;54;20907;31
2023/08/21 12:46:22;;;;;;;6.20;4.65;;;28.70;99.90;;;;;;2603281;54;20804;31
2023/08/21 12:48:57;;;;;;;6.00;4.18;;;28.80;99.90;;;;;;2602827;54;20068;31
2023/08/21 12:51:31;;;;;;;4.30;3.90;;;28.70;99.90;;;;;;2603236;54;20863;31
2023/08/21 12:54:08;;;;;;;4.60;4.10;;;28.70;99.90;;;;;;2603382;54;19935;31
2023/08/21 12:56:49;;;;;;;5.45;3.97;;;28.70;99.90;;;;;;2621588;46;20918;31
2023/08/21 12:59:24;;;;;;;6.53;4.78;;;28.70;99.90;;;;;;2603297;54;20026;31
2023/08/21 13:02:00;;;;;;;4.40;3.63;;;28.70;99.90;;;;;;2603438;54;20030;31
2023/08/21 13:04:35;;;;;;;5.15;3.95;;;28.70;99.90;;;;;;2621502;46;20799;31
2023/08/21 13:07:10;;;;;;;6.80;4.22;;;28.60;99.90;;;;;;2603305;54;20034;31
2023/08/21 13:09:45;;;;;;;4.85;4.07;;;28.60;99.90;;;;;;2621609;46;20026;31
2023/08/21 13:12:22;;;;;;;4.87;4.07;;;28.70;99.90;;;;;;2621448;46;20877;31
2023/08/21 13:14:57;;;;;;;4.78;4.05;;;28.70;99.90;;;;;;2603136;54;20089;31
2023/08/21 13:17:32;;;;;;;5.55;3.55;;;28.70;99.90;;;;;;2621503;47;20030;31
2023/08/21 13:20:08;;;;;;;4.72;3.92;;;28.70;99.90;;;;;;2765017;31;20033;31
2023/08/21 13:22:50;;;;;;;5.90;4.22;;;28.70;99.90;;;;;;2604008;54;20042;31
2023/08/21 13:25:26;;;;;;;4.68;3.67;;;28.80;99.90;;;;;;2604034;54;20038;31
2023/08/21 13:28:03;;;;;;;;;;;28.80;99.90;;;;;;2604222;54;20030;31
2023/08/21 13:30:38;;;;;;;4.80;4.00;;;28.80;99.90;;;;;;2622380;46;19942;31
2023/08/21 13:33:13;;;;;;;6.10;4.13;;;28.80;99.90;;;;;;2603771;54;21230;31
2023/08/21 13:35:48;;;;;;;5.80;4.07;;;28.80;99.90;;;;;;2604084;54;20026;31
2023/08/21 13:38:22;;;;;;;;;;;28.80;99.90;;;;;;2604192;54;20914;31